createdAt,value
2022-12-25T00:01:18.859Z,98794.24
2022-12-25T00:03:53.917Z,98796.51
2022-12-25T00:06:28.021Z,98801.91
2022-12-25T00:08:59.631Z,98809.83
2022-12-25T00:11:31.278Z,98808.87
2022-12-25T00:14:02.940Z,98811.94
2022-12-25T00:16:34.885Z,98809.99
2022-12-25T00:19:06.605Z,98814.77
2022-12-25T00:21:38.293Z,98824.04
2022-12-25T00:24:11.156Z,98819.55
2022-12-25T00:26:42.752Z,98823.86
2022-12-25T00:29:16.363Z,98828.02
2022-12-25T00:31:46.631Z,98827.38
2022-12-25T00:34:18.365Z,98836.81
2022-12-25T00:36:52.613Z,98840.96
2022-12-25T00:39:24.557Z,98835.38
2022-12-25T00:42:13.813Z,98844.55
2022-12-25T00:44:45.387Z,98842.70
2022-12-25T00:47:17.787Z,98849.71
2022-12-25T00:49:49.646Z,98853.15
2022-12-25T00:52:21.309Z,98864.60
2022-12-25T00:54:52.956Z,98871.75
2022-12-25T00:57:24.710Z,98869.92
2022-12-25T00:59:56.334Z,98873.96
2022-12-25T01:02:28.011Z,98875.52
2022-12-25T01:05:00.023Z,98871.05
2022-12-25T01:07:31.668Z,98881.30
2022-12-25T01:10:21.107Z,98880.84
2022-12-25T01:12:53.699Z,98889.18
2022-12-25T01:15:25.322Z,98896.44
2022-12-25T01:17:56.958Z,98898.33
2022-12-25T01:20:28.656Z,98906.39
2022-12-25T01:23:00.320Z,98909.72
2022-12-25T01:25:32.217Z,98910.56
2022-12-25T01:28:03.903Z,98910.60
2022-12-25T01:30:36.485Z,98906.85
2022-12-25T01:33:08.125Z,98907.98
2022-12-25T01:35:42.831Z,98914.14
2022-12-25T01:38:14.699Z,98918.33
2022-12-25T01:40:46.354Z,98917.56
2022-12-25T01:43:25.892Z,98918.82
2022-12-25T01:45:57.844Z,98921.28
2022-12-25T01:48:33.750Z,98919.02
2022-12-25T01:51:08.287Z,98923.04
2022-12-25T01:53:40.147Z,98930.87
2022-12-25T01:56:12.520Z,98932.42
2022-12-25T01:58:44.494Z,98932.02
2022-12-25T02:01:16.720Z,98934.61
2022-12-25T02:03:48.602Z,98936.89
2022-12-25T02:06:20.248Z,98930.45
2022-12-25T02:08:55.125Z,98929.83
2022-12-25T02:11:44.193Z,98926.63
2022-12-25T02:14:19.354Z,98932.05
2022-12-25T02:16:58.956Z,98932.70
2022-12-25T02:20:03.994Z,98943.77
2022-12-25T02:22:47.932Z,98947.30
2022-12-25T02:25:30.005Z,98943.25
2022-12-25T02:28:14.776Z,98936.16
2022-12-25T02:30:53.396Z,98940.21
2022-12-25T02:33:47.221Z,98941.08
2022-12-25T02:36:23.593Z,98943.31
2022-12-25T02:39:19.298Z,98941.59
2022-12-25T02:41:54.786Z,98932.77
2022-12-25T02:44:47.086Z,98926.55
2022-12-25T02:47:32.923Z,98925.48
2022-12-25T02:50:28.431Z,98929.31
2022-12-25T02:53:20.118Z,98935.00
2022-12-25T02:56:11.790Z,98935.59
2022-12-25T02:59:04.190Z,98939.32
2022-12-25T03:01:56.128Z,98938.24
2022-12-25T03:04:49.273Z,98934.94
2022-12-25T03:07:28.081Z,98931.17
2022-12-25T03:10:24.232Z,98944.59
2022-12-25T03:13:00.284Z,98944.73
2022-12-25T03:15:50.871Z,98937.27
2022-12-25T03:18:25.354Z,98942.21
2022-12-25T03:21:15.187Z,98945.70
2022-12-25T03:24:09.748Z,98942.32
2022-12-25T03:26:56.975Z,98945.05
2022-12-25T03:30:07.379Z,98948.31
2022-12-25T03:32:44.479Z,98943.98
2022-12-25T03:35:26.147Z,98940.88
2022-12-25T03:38:31.473Z,98947.48
2022-12-25T03:41:41.169Z,98954.71
2022-12-25T03:44:39.217Z,98960.14
2022-12-25T03:47:33.786Z,98964.85
2022-12-25T03:50:31.605Z,98967.12
2022-12-25T03:53:24.965Z,98968.52
2022-12-25T03:56:15.584Z,98966.77
2022-12-25T03:59:22.979Z,98965.78
2022-12-25T04:02:13.337Z,98970.02
2022-12-25T04:05:02.919Z,98969.05
2022-12-25T04:07:52.630Z,98979.41
2022-12-25T04:10:44.192Z,98980.87
2022-12-25T04:13:33.766Z,98984.84
2022-12-25T04:16:23.975Z,98988.08
2022-12-25T04:19:13.611Z,98993.19
2022-12-25T04:22:04.944Z,98998.55
2022-12-25T04:24:54.435Z,99004.39
2022-12-25T04:27:43.946Z,99002.65
2022-12-25T04:30:33.604Z,99002.67
2022-12-25T04:33:23.346Z,99004.57
2022-12-25T04:36:12.265Z,99014.05
2022-12-25T04:38:44.015Z,99012.61
2022-12-25T04:41:16.033Z,99013.09
2022-12-25T04:43:47.774Z,99006.10
2022-12-25T04:46:23.574Z,99013.70
2022-12-25T04:48:55.264Z,99012.48
2022-12-25T04:51:28.097Z,99011.98
2022-12-25T04:53:59.736Z,99016.89
2022-12-25T04:56:31.412Z,99017.66
2022-12-25T04:59:04.282Z,99016.98
2022-12-25T05:01:36.330Z,99015.31
2022-12-25T05:04:10.080Z,99014.94
2022-12-25T05:06:49.283Z,99013.24
2022-12-25T05:09:22.181Z,99008.28
2022-12-25T05:11:53.837Z,99014.77
2022-12-25T05:14:25.540Z,99016.82
2022-12-25T05:16:57.362Z,99024.59
2022-12-25T05:19:29.512Z,99025.33
2022-12-25T05:22:01.114Z,99021.73
2022-12-25T05:24:37.686Z,99020.38
2022-12-25T05:27:09.497Z,99021.71
2022-12-25T05:29:41.134Z,99023.30
2022-12-25T05:32:12.940Z,99026.98
2022-12-25T05:34:45.927Z,99028.98
2022-12-25T05:37:17.919Z,99031.33
2022-12-25T05:39:54.965Z,99034.32
2022-12-25T05:42:29.759Z,99041.59
2022-12-25T05:45:03.944Z,99045.75
2022-12-25T05:47:35.774Z,99042.95
2022-12-25T05:50:10.314Z,99048.30
2022-12-25T05:52:45.090Z,99053.59
2022-12-25T05:55:17.039Z,99053.39
2022-12-25T05:57:48.693Z,99054.39
2022-12-25T06:00:23.621Z,99055.42
2022-12-25T06:02:56.938Z,99049.05
2022-12-25T06:05:32.002Z,99047.73
2022-12-25T06:08:03.678Z,99048.96
2022-12-25T06:10:37.253Z,99054.58
2022-12-25T06:13:08.981Z,99063.04
2022-12-25T06:15:44.597Z,99066.30
2022-12-25T06:18:18.192Z,99068.37
2022-12-25T06:20:48.339Z,99076.42
2022-12-25T06:23:20.221Z,99077.25
2022-12-25T06:25:56.859Z,99080.98
2022-12-25T06:28:29.784Z,99090.48
2022-12-25T06:31:08.670Z,99089.68
2022-12-25T06:33:43.592Z,99091.48
2022-12-25T06:36:17.775Z,99095.30
2022-12-25T06:38:50.873Z,99100.62
2022-12-25T06:41:27.183Z,99109.02
2022-12-25T06:44:03.607Z,99117.51
2022-12-25T06:46:36.257Z,99121.65
2022-12-25T06:49:12.323Z,99123.86
2022-12-25T06:51:44.173Z,99124.64
2022-12-25T06:54:16.197Z,99135.41
2022-12-25T06:56:48.684Z,99145.21
2022-12-25T06:59:25.424Z,99147.37
2022-12-25T07:01:58.673Z,99148.62
2022-12-25T07:04:35.645Z,99148.17
2022-12-25T07:07:09.859Z,99153.27
2022-12-25T07:09:45.911Z,99159.87
2022-12-25T07:12:21.199Z,99165.45
2022-12-25T07:14:55.758Z,99166.86
2022-12-25T07:17:27.412Z,99182.70
2022-12-25T07:20:00.283Z,99198.35
2022-12-25T07:22:33.585Z,99205.90
2022-12-25T07:25:05.829Z,99213.56
2022-12-25T07:27:37.493Z,99208.55
2022-12-25T07:30:11.987Z,99208.02
2022-12-25T07:32:49.877Z,99206.00
2022-12-25T07:35:21.838Z,99208.05
2022-12-25T07:37:53.519Z,99211.57
2022-12-25T07:40:25.249Z,99214.59
2022-12-25T07:42:56.903Z,99213.91
2022-12-25T07:45:28.577Z,99215.01
2022-12-25T07:48:05.218Z,99213.16
2022-12-25T07:50:38.033Z,99210.56
2022-12-25T07:53:09.850Z,99213.85
2022-12-25T07:55:41.454Z,99211.64
2022-12-25T07:58:16.071Z,99207.22
2022-12-25T08:00:51.629Z,99213.01
2022-12-25T08:03:23.701Z,99214.31
2022-12-25T08:05:55.657Z,99213.03
2022-12-25T08:08:27.279Z,99211.80
2022-12-25T08:10:59.035Z,99213.42
2022-12-25T08:13:33.402Z,99214.67
2022-12-25T08:16:07.853Z,99217.92
2022-12-25T08:18:40.321Z,99216.23
2022-12-25T08:21:15.204Z,99214.93
2022-12-25T08:23:48.749Z,99219.67
2022-12-25T08:26:21.218Z,99220.11
2022-12-25T08:28:53.596Z,99217.70
2022-12-25T08:31:27.837Z,99212.20
2022-12-25T08:34:00.699Z,99206.72
2022-12-25T08:36:32.655Z,99198.53
2022-12-25T08:39:04.531Z,99195.55
2022-12-25T08:41:36.879Z,99189.05
2022-12-25T08:44:08.800Z,99185.73
2022-12-25T08:46:40.984Z,99186.87
2022-12-25T08:49:12.653Z,99185.19
2022-12-25T08:51:46.857Z,99202.47
2022-12-25T08:54:18.653Z,99210.23
2022-12-25T08:56:51.354Z,99222.20
2022-12-25T08:59:23.344Z,99223.29
2022-12-25T09:01:55.096Z,99230.77
2022-12-25T09:04:27.057Z,99230.81
2022-12-25T09:06:58.667Z,99227.58
2022-12-25T09:09:31.541Z,99228.44
2022-12-25T09:12:03.184Z,99231.05
2022-12-25T09:14:34.913Z,99230.23
2022-12-25T09:17:06.926Z,99234.02
2022-12-25T09:19:38.712Z,99238.25
2022-12-25T09:22:10.370Z,99243.05
2022-12-25T09:24:43.760Z,99241.21
2022-12-25T09:27:15.489Z,99244.88
2022-12-25T09:29:47.135Z,99249.04
2022-12-25T09:32:18.827Z,99246.00
2022-12-25T09:34:51.403Z,99247.00
2022-12-25T09:37:23.171Z,99247.26
2022-12-25T09:39:54.763Z,99244.89
2022-12-25T09:42:31.362Z,99251.97
2022-12-25T09:45:06.926Z,99257.02
2022-12-25T09:47:41.256Z,99263.92
2022-12-25T09:50:18.283Z,99261.59
2022-12-25T09:52:56.326Z,99263.63
2022-12-25T09:55:31.713Z,99265.06
2022-12-25T09:58:09.845Z,99264.20
2022-12-25T10:00:45.254Z,99258.36
2022-12-25T10:03:36.907Z,99254.33
2022-12-25T10:06:18.047Z,99253.88
2022-12-25T10:09:04.571Z,99253.38
2022-12-25T10:11:52.595Z,99250.52
2022-12-25T10:14:32.824Z,99245.58
2022-12-25T10:17:18.722Z,99246.14
2022-12-25T10:19:58.010Z,99238.25
2022-12-25T10:22:35.795Z,99234.27
2022-12-25T10:25:16.031Z,99235.19
2022-12-25T10:27:51.092Z,99234.57
2022-12-25T10:30:25.463Z,99229.05
2022-12-25T10:32:59.043Z,99230.21
2022-12-25T10:35:32.817Z,99233.46
2022-12-25T10:38:08.011Z,99229.91
2022-12-25T10:40:53.033Z,99225.20
2022-12-25T10:43:31.674Z,99219.73
2022-12-25T10:46:09.371Z,99217.80
2022-12-25T10:48:43.835Z,99212.89
2022-12-25T10:51:16.013Z,99214.23
2022-12-25T10:53:47.720Z,99215.66
2022-12-25T10:56:22.855Z,99218.14
2022-12-25T10:59:04.696Z,99213.89
2022-12-25T11:01:36.771Z,99210.59
2022-12-25T11:04:16.462Z,99207.22
2022-12-25T11:06:59.664Z,99203.19
2022-12-25T11:09:31.497Z,99203.88
2022-12-25T11:12:03.685Z,99195.17
2022-12-25T11:14:35.311Z,99186.36
2022-12-25T11:17:19.523Z,99183.56
2022-12-25T11:19:56.967Z,99183.35
2022-12-25T11:22:29.553Z,99181.87
2022-12-25T11:25:14.575Z,99181.51
2022-12-25T11:27:51.861Z,99177.77
2022-12-25T11:30:25.449Z,99180.57
2022-12-25T11:32:59.902Z,99179.50
2022-12-25T11:35:38.407Z,99180.13
2022-12-25T11:38:11.992Z,99181.50
2022-12-25T11:40:48.732Z,99182.34
2022-12-25T11:43:24.831Z,99182.06
2022-12-25T11:46:00.687Z,99181.20
2022-12-25T11:48:38.013Z,99185.11
2022-12-25T11:51:12.736Z,99183.10
2022-12-25T11:53:49.543Z,99181.14
2022-12-25T11:56:22.930Z,99177.95
2022-12-25T11:58:58.021Z,99179.00
2022-12-25T12:01:36.559Z,99174.16
2022-12-25T12:04:15.040Z,99175.30
2022-12-25T12:06:53.033Z,99177.59
2022-12-25T12:09:38.027Z,99174.60
2022-12-25T12:12:15.724Z,99171.60
2022-12-25T12:14:54.737Z,99163.34
2022-12-25T12:17:26.544Z,99169.07
2022-12-25T12:19:58.921Z,99169.00
2022-12-25T12:22:31.152Z,99165.52
2022-12-25T12:25:06.800Z,99162.89
2022-12-25T12:27:40.816Z,99165.56
2022-12-25T12:30:27.906Z,99163.27
2022-12-25T12:33:02.113Z,99159.36
2022-12-25T12:35:36.218Z,99159.92
2022-12-25T12:38:12.895Z,99154.00
2022-12-25T12:40:52.547Z,99152.63
2022-12-25T12:43:33.238Z,99157.68
2022-12-25T12:46:09.379Z,99155.17
2022-12-25T12:48:44.583Z,99149.99
2022-12-25T12:51:29.268Z,99145.70
2022-12-25T12:54:21.308Z,99153.60
2022-12-25T12:57:01.185Z,99161.86
2022-12-25T12:59:43.547Z,99164.15
2022-12-25T13:02:49.562Z,99165.67
2022-12-25T13:05:34.407Z,99165.66
2022-12-25T13:08:21.345Z,99166.63
2022-12-25T13:11:04.078Z,99165.60
2022-12-25T13:13:41.049Z,99160.80
2022-12-25T13:16:23.768Z,99162.33
2022-12-25T13:18:57.367Z,99168.73
2022-12-25T13:21:30.403Z,99166.41
2022-12-25T13:24:04.315Z,99166.56
2022-12-25T13:26:36.725Z,99168.34
2022-12-25T13:29:19.740Z,99170.35
2022-12-25T13:31:51.390Z,99167.08
2022-12-25T13:34:29.556Z,99162.34
2022-12-25T13:37:06.990Z,99157.45
2022-12-25T13:39:40.577Z,99164.77
2022-12-25T13:42:16.591Z,99159.04
2022-12-25T13:44:50.697Z,99158.33
2022-12-25T13:47:32.919Z,99165.34
2022-12-25T13:50:17.791Z,99174.98
2022-12-25T13:52:50.068Z,99166.56
2022-12-25T13:55:24.503Z,99155.02
2022-12-25T13:57:59.087Z,99152.42
2022-12-25T14:00:39.682Z,99158.92
2022-12-25T14:03:19.645Z,99154.29
2022-12-25T14:05:58.776Z,99144.30
2022-12-25T14:08:32.590Z,99141.27
2022-12-25T14:11:07.185Z,99144.87
2022-12-25T14:13:42.480Z,99141.78
2022-12-25T14:16:16.766Z,99146.11
2022-12-25T14:18:55.945Z,99147.90
2022-12-25T14:21:32.507Z,99156.30
2022-12-25T14:24:04.440Z,99161.14
2022-12-25T14:26:36.421Z,99163.69
2022-12-25T14:29:17.848Z,99169.17
2022-12-25T14:31:51.106Z,99166.36
2022-12-25T14:34:25.569Z,99160.48
2022-12-25T14:36:57.845Z,99154.61
2022-12-25T14:39:37.249Z,99144.11
2022-12-25T14:42:20.388Z,99131.80
2022-12-25T14:45:05.194Z,99131.27
2022-12-25T14:47:51.616Z,99124.66
2022-12-25T14:50:31.741Z,99115.95
2022-12-25T14:53:03.734Z,99123.75
2022-12-25T14:55:35.679Z,99140.27
2022-12-25T14:58:22.797Z,99148.62
2022-12-25T15:00:58.613Z,99155.98
2022-12-25T15:03:33.481Z,99156.25
2022-12-25T15:06:07.402Z,99165.95
2022-12-25T15:08:39.166Z,99164.42
2022-12-25T15:11:11.361Z,99165.80
2022-12-25T15:13:43.148Z,99168.97
2022-12-25T15:16:19.548Z,99172.25
2022-12-25T15:18:52.901Z,99170.95
2022-12-25T15:21:28.306Z,99171.84
2022-12-25T15:24:01.132Z,99167.68
2022-12-25T15:26:33.872Z,99168.41
2022-12-25T15:29:06.189Z,99159.54
2022-12-25T15:31:40.336Z,99156.46
2022-12-25T15:34:23.596Z,99148.05
2022-12-25T15:36:55.984Z,99146.73
2022-12-25T15:39:27.647Z,99145.91
2022-12-25T15:42:12.759Z,99139.57
2022-12-25T15:44:45.410Z,99137.16
2022-12-25T15:47:20.002Z,99134.76
2022-12-25T15:49:51.798Z,99128.52
2022-12-25T15:52:23.461Z,99116.38
2022-12-25T15:54:55.068Z,99114.41
2022-12-25T15:57:27.025Z,99120.11
2022-12-25T15:59:58.821Z,99118.77
2022-12-25T16:02:30.665Z,99115.80
2022-12-25T16:05:09.947Z,99114.46
2022-12-25T16:07:42.409Z,99109.54
2022-12-25T16:10:19.215Z,99106.20
2022-12-25T16:12:51.120Z,99103.25
2022-12-25T16:15:22.756Z,99111.84
2022-12-25T16:17:54.424Z,99116.27
2022-12-25T16:20:26.075Z,99109.70
2022-12-25T16:22:57.873Z,99107.09
2022-12-25T16:25:29.550Z,99108.70
2022-12-25T16:28:03.563Z,99113.70
2022-12-25T16:30:35.502Z,99113.17
2022-12-25T16:33:08.189Z,99108.48
2022-12-25T16:35:39.790Z,99106.91
2022-12-25T16:38:11.974Z,99101.58
2022-12-25T16:40:44.415Z,99101.13
2022-12-25T16:43:21.940Z,99096.41
2022-12-25T16:45:57.387Z,99096.61
2022-12-25T16:48:27.843Z,99097.77
2022-12-25T16:50:59.577Z,99096.51
2022-12-25T16:53:32.618Z,99096.19
2022-12-25T16:56:09.879Z,99094.90
2022-12-25T16:58:42.780Z,99102.63
2022-12-25T17:01:16.113Z,99098.09
2022-12-25T17:03:48.475Z,99101.33
2022-12-25T17:06:22.965Z,99098.71
2022-12-25T17:08:58.312Z,99105.67
2022-12-25T17:11:30.957Z,99102.25
2022-12-25T17:14:05.314Z,99097.15
2022-12-25T17:16:38.999Z,99089.13
2022-12-25T17:19:18.590Z,99090.02
2022-12-25T17:21:50.263Z,99081.90
2022-12-25T17:24:22.386Z,99075.19
2022-12-25T17:26:53.975Z,99069.48
2022-12-25T17:29:26.091Z,99052.00
2022-12-25T17:31:57.703Z,99044.89
2022-12-25T17:34:29.335Z,99038.96
2022-12-25T17:37:00.971Z,99038.85
2022-12-25T17:39:33.041Z,99042.16
2022-12-25T17:42:05.106Z,99037.02
2022-12-25T17:44:36.728Z,99037.50
2022-12-25T17:47:08.725Z,99038.40
2022-12-25T17:49:40.521Z,99034.61
2022-12-25T17:52:12.145Z,99037.91
2022-12-25T17:54:44.043Z,99039.09
2022-12-25T17:57:15.650Z,99045.71
2022-12-25T17:59:47.282Z,99050.94
2022-12-25T18:02:19.039Z,99045.55
2022-12-25T18:04:51.266Z,99041.96
2022-12-25T18:07:23.112Z,99044.30
2022-12-25T18:09:54.914Z,99051.69
2022-12-25T18:12:27.639Z,99045.35
2022-12-25T18:15:00.015Z,99042.53
2022-12-25T18:17:32.435Z,99037.21
2022-12-25T18:20:04.315Z,99029.33
2022-12-25T18:22:37.610Z,99029.74
2022-12-25T18:25:10.891Z,99039.58
2022-12-25T18:27:42.580Z,99046.20
2022-12-25T18:30:14.952Z,99048.43
2022-12-25T18:32:46.763Z,99047.81
2022-12-25T18:35:18.503Z,99036.05
2022-12-25T18:37:50.151Z,99030.56
2022-12-25T18:40:21.914Z,99029.36
2022-12-25T18:42:57.801Z,99036.17
2022-12-25T18:45:34.512Z,99039.42
2022-12-25T18:48:07.539Z,99040.13
2022-12-25T18:50:41.244Z,99028.44
2022-12-25T18:53:12.886Z,99026.38
2022-12-25T18:55:44.523Z,99018.52
2022-12-25T18:58:16.280Z,99011.68
2022-12-25T19:00:47.991Z,99006.23
2022-12-25T19:03:22.829Z,99010.27
2022-12-25T19:05:54.862Z,99017.96
2022-12-25T19:08:27.253Z,99020.60
2022-12-25T19:10:59.038Z,99021.30
2022-12-25T19:13:31.124Z,99019.08
2022-12-25T19:16:04.193Z,99014.41
2022-12-25T19:18:36.561Z,99011.21
2022-12-25T19:21:10.443Z,99013.42
2022-12-25T19:23:42.771Z,99016.32
2022-12-25T19:26:16.142Z,99009.34
2022-12-25T19:28:49.670Z,99000.41
2022-12-25T19:31:22.168Z,98997.40
2022-12-25T19:33:54.539Z,98991.48
2022-12-25T19:36:26.462Z,98991.53
2022-12-25T19:38:59.089Z,98988.16
2022-12-25T19:41:30.905Z,98986.45
2022-12-25T19:44:03.107Z,98981.54
2022-12-25T19:46:36.795Z,98976.04
2022-12-25T19:49:07.944Z,98980.96
2022-12-25T19:51:42.411Z,98989.35
2022-12-25T19:54:17.261Z,98980.30
2022-12-25T19:56:49.482Z,98969.70
2022-12-25T19:59:21.137Z,98970.45
2022-12-25T20:01:52.956Z,98966.45
2022-12-25T20:04:24.779Z,98958.13
2022-12-25T20:06:56.477Z,98951.13
2022-12-25T20:09:28.157Z,98951.90
2022-12-25T20:11:59.903Z,98949.36
2022-12-25T20:14:31.533Z,98945.17
2022-12-25T20:17:03.250Z,98942.80
2022-12-25T20:19:35.065Z,98940.31
2022-12-25T20:22:06.753Z,98936.75
2022-12-25T20:24:38.517Z,98936.38
2022-12-25T20:27:10.214Z,98941.55
2022-12-25T20:29:41.823Z,98943.00
2022-12-25T20:32:13.618Z,98941.21
2022-12-25T20:34:45.658Z,98939.55
2022-12-25T20:37:17.319Z,98933.19
2022-12-25T20:39:48.903Z,98928.25
2022-12-25T20:42:20.602Z,98921.06
2022-12-25T20:44:52.366Z,98918.34
2022-12-25T20:47:24.255Z,98910.52
2022-12-25T20:49:56.396Z,98905.76
2022-12-25T20:52:28.507Z,98910.14
2022-12-25T20:55:00.066Z,98905.88
2022-12-25T20:57:31.877Z,98899.66
2022-12-25T21:00:05.051Z,98896.05
2022-12-25T21:02:37.898Z,98891.75
2022-12-25T21:05:12.438Z,98889.24
2022-12-25T21:07:44.077Z,98895.65
2022-12-25T21:10:15.715Z,98900.15
2022-12-25T21:12:47.348Z,98896.95
2022-12-25T21:15:19.354Z,98895.54
2022-12-25T21:17:50.967Z,98885.84
2022-12-25T21:20:22.593Z,98870.92
2022-12-25T21:22:54.227Z,98853.55
2022-12-25T21:25:25.815Z,98844.16
2022-12-25T21:27:57.437Z,98847.20
2022-12-25T21:30:29.151Z,98858.48
2022-12-25T21:33:18.509Z,98865.36
2022-12-25T21:35:50.171Z,98864.87
2022-12-25T21:38:22.148Z,98867.98
2022-12-25T21:40:53.819Z,98871.34
2022-12-25T21:43:25.535Z,98876.27
2022-12-25T21:45:57.203Z,98867.84
2022-12-25T21:48:28.910Z,98860.19
2022-12-25T21:51:23.662Z,98859.61
2022-12-25T21:53:55.267Z,98849.98
2022-12-25T21:56:28.487Z,98852.81
2022-12-25T21:59:01.291Z,98851.10
2022-12-25T22:01:33.637Z,98852.44
2022-12-25T22:04:06.988Z,98842.13
2022-12-25T22:06:56.219Z,98837.66
2022-12-25T22:09:27.783Z,98836.87
2022-12-25T22:12:17.204Z,98837.55
2022-12-25T22:14:57.047Z,98846.59
2022-12-25T22:17:48.722Z,98850.17
2022-12-25T22:20:22.396Z,98845.98
2022-12-25T22:22:54.764Z,98837.29
2022-12-25T22:25:27.303Z,98833.58
2022-12-25T22:27:59.258Z,98828.73
2022-12-25T22:30:32.310Z,98823.85
2022-12-25T22:33:04.147Z,98816.58
2022-12-25T22:35:35.729Z,98819.65
2022-12-25T22:38:07.354Z,98813.86
2022-12-25T22:40:38.962Z,98817.38
2022-12-25T22:43:10.609Z,98807.17
2022-12-25T22:45:42.245Z,98807.16
2022-12-25T22:48:13.868Z,98798.14
2022-12-25T22:50:45.504Z,98794.37
2022-12-25T22:53:17.312Z,98799.19
2022-12-25T22:55:49.951Z,98796.78
2022-12-25T22:58:21.579Z,98797.58
2022-12-25T23:00:53.270Z,98804.84
2022-12-25T23:03:25.049Z,98800.63
2022-12-25T23:05:57.794Z,98797.09
2022-12-25T23:08:29.436Z,98802.00
2022-12-25T23:11:05.508Z,98807.21
2022-12-25T23:13:55.682Z,98807.02
2022-12-25T23:16:27.849Z,98797.55
2022-12-25T23:19:17.634Z,98802.08
2022-12-25T23:22:07.120Z,98795.37
2022-12-25T23:24:56.620Z,98803.06
2022-12-25T23:27:28.272Z,98807.19
2022-12-25T23:29:59.883Z,98796.68
2022-12-25T23:32:32.180Z,98791.05
2022-12-25T23:35:04.206Z,98792.81
2022-12-25T23:37:36.001Z,98792.23
2022-12-25T23:40:10.328Z,98792.95
2022-12-25T23:42:43.170Z,98782.64
2022-12-25T23:45:15.026Z,98773.23
2022-12-25T23:47:46.812Z,98770.36
2022-12-25T23:50:18.488Z,98753.08
2022-12-25T23:52:50.093Z,98741.05
2022-12-25T23:55:21.688Z,98742.50
2022-12-25T23:57:53.262Z,98737.80
